Time;durP1;ratioP1;P1;durP2;ratioP2;P2;SDS_P1;SDS_P2;PMS_P1;PMS_P2;Temp;Humidity;BMP_temperature;BMP_pressure;BME280_temperature;BME280_humidity;BME280_pressure;Samples;Min_cycle;Max_cycle;Signal;HPM_P1;HPM_P2
2024/03/07 00:00:18;;;;;;;27.53;13.07;;;6.70;99.90;;;7.53;100.00;98715.16;4985240;28;21066;-78
2024/03/07 00:02:49;;;;;;;22.77;11.50;;;6.70;99.90;;;7.57;100.00;98724.28;4984431;28;20463;-78
2024/03/07 00:05:24;;;;;;;32.67;14.23;;;6.70;99.90;;;7.60;100.00;98722.19;4985259;28;20473;-78
2024/03/07 00:07:53;;;;;;;23.80;13.57;;;6.80;99.90;;;7.62;100.00;98718.63;4986452;28;20462;-78
2024/03/07 00:10:23;;;;;;;21.00;12.40;;;6.80;99.90;;;7.62;100.00;98729.03;4986657;28;20503;-78
2024/03/07 00:12:51;;;;;;;25.50;13.17;;;6.80;99.90;;;7.57;100.00;98719.91;4987727;28;20458;-79
2024/03/07 00:15:21;;;;;;;26.63;13.10;;;6.80;99.90;;;7.60;100.00;98722.19;4987268;28;20460;-78
2024/03/07 00:17:49;;;;;;;26.45;14.02;;;6.80;99.90;;;7.58;100.00;98720.72;4987917;28;20494;-78
2024/03/07 00:20:20;;;;;;;23.53;13.07;;;6.80;99.90;;;7.55;100.00;98719.25;4986267;28;20684;-79
2024/03/07 00:22:49;;;;;;;27.77;13.93;;;6.80;99.90;;;7.49;100.00;98727.66;4986870;28;20539;-78
2024/03/07 00:25:19;;;;;;;29.77;14.20;;;6.70;99.90;;;7.46;100.00;98724.53;4987289;28;20502;-78
2024/03/07 00:27:52;;;;;;;22.57;13.20;;;6.70;99.90;;;7.49;100.00;98721.63;4986019;28;20479;-78
2024/03/07 00:30:20;;;;;;;22.95;13.00;;;6.80;99.90;;;7.50;100.00;98718.03;4987081;28;20485;-78
2024/03/07 00:32:49;;;;;;;24.23;12.93;;;6.80;99.90;;;7.52;100.00;98729.13;4986754;28;20207;-80
2024/03/07 00:35:20;;;;;;;27.00;13.20;;;6.70;99.90;;;7.49;100.00;98719.03;4986831;28;20471;-78
2024/03/07 00:37:49;;;;;;;25.37;13.90;;;6.50;99.90;;;7.46;100.00;98725.31;4987115;28;20465;-78
2024/03/07 00:40:17;;;;;;;22.80;12.67;;;6.80;99.90;;;7.42;100.00;98712.78;4985741;28;20559;-78
2024/03/07 00:42:46;;;;;;;23.73;12.20;;;6.70;99.90;;;7.41;100.00;98717.19;4987130;28;20470;-78
2024/03/07 00:45:14;;;;;;;22.77;12.73;;;6.60;99.90;;;7.38;100.00;98711.47;4985789;28;20455;-78
2024/03/07 00:48:13;;;;;;;21.40;11.97;;;6.50;99.90;;;7.33;100.00;98713.69;4991284;28;20460;-78
2024/03/07 00:50:44;;;;;;;23.80;11.57;;;6.50;99.90;;;7.30;100.00;98714.81;4986999;28;20496;-78
2024/03/07 00:53:13;;;;;;;22.33;12.20;;;6.40;99.90;;;7.28;100.00;98714.16;4991976;28;20504;-78
2024/03/07 00:55:41;;;;;;;22.60;13.20;;;6.40;99.90;;;7.34;100.00;98705.72;4993740;28;20505;-78
2024/03/07 00:58:10;;;;;;;24.97;14.57;;;6.50;99.90;;;7.36;100.00;98698.59;4990119;28;20475;-78
2024/03/07 01:00:41;;;;;;;25.30;13.23;;;6.50;99.90;;;7.34;100.00;98697.94;4991245;28;21288;-78
2024/03/07 01:03:13;;;;;;;24.20;12.80;;;6.60;99.90;;;7.33;100.00;98703.28;4991085;28;20205;-78
2024/03/07 01:05:43;;;;;;;24.33;13.10;;;6.50;99.90;;;7.31;100.00;98700.00;4990417;28;20467;-78
2024/03/07 01:08:12;;;;;;;25.90;12.90;;;6.60;99.90;;;7.35;100.00;98701.34;4990244;28;20542;-78
2024/03/07 01:10:40;;;;;;;28.50;13.63;;;6.50;99.90;;;7.32;100.00;98697.28;4983407;28;20507;-78
2024/03/07 01:13:15;;;;;;;22.80;13.17;;;6.50;99.90;;;7.29;100.00;98692.34;4984747;28;20829;-78
2024/03/07 01:15:44;;;;;;;25.30;12.73;;;6.60;99.90;;;7.26;100.00;98694.44;4984438;28;20459;-78
2024/03/07 01:18:13;;;;;;;23.43;13.10;;;6.50;99.90;;;7.21;100.00;98692.31;4984889;28;20506;-78
2024/03/07 01:20:43;;;;;;;26.13;12.47;;;6.40;99.90;;;7.23;100.00;98697.34;4985909;28;20495;-78
2024/03/07 01:23:11;;;;;;;22.08;12.55;;;6.40;99.90;;;7.19;100.00;98696.81;4986202;28;20472;-78
2024/03/07 01:25:40;;;;;;;25.00;12.53;;;6.40;99.90;;;7.15;100.00;98695.47;4985427;28;20586;-78
2024/03/07 01:28:12;;;;;;;21.90;12.03;;;6.40;99.90;;;7.11;100.00;98690.75;4985021;28;20462;-78
2024/03/07 01:30:40;;;;;;;17.73;11.27;;;6.30;99.90;;;7.07;100.00;98688.44;4985569;28;20550;-78
2024/03/07 01:33:09;;;;;;;25.50;12.18;;;6.30;99.90;;;7.11;100.00;98686.38;4985214;28;20457;-78
2024/03/07 01:35:37;;;;;;;21.30;12.00;;;6.30;99.90;;;7.11;100.00;98686.38;4985277;28;20235;-78
2024/03/07 01:38:08;;;;;;;19.37;11.10;;;6.30;99.90;;;7.07;100.00;98679.81;4986332;28;20824;-78
2024/03/07 01:40:37;;;;;;;18.57;10.73;;;6.20;99.90;;;7.04;100.00;98677.53;4986128;28;20460;-78
2024/03/07 01:43:06;;;;;;;22.30;11.60;;;6.30;99.90;;;6.97;100.00;98669.50;4985111;28;20484;-80
2024/03/07 01:45:37;;;;;;;24.20;11.87;;;6.10;99.90;;;7.00;100.00;98670.97;4983505;28;20704;-78
2024/03/07 01:48:08;;;;;;;27.17;12.90;;;6.20;99.90;;;6.90;100.00;98675.44;4987188;28;20460;-78
2024/03/07 01:50:38;;;;;;;23.83;13.43;;;6.10;99.90;;;6.87;100.00;98668.72;4989707;28;20498;-79
2024/03/07 01:53:12;;;;;;;30.97;13.53;;;6.20;99.90;;;6.97;100.00;98676.47;4988797;28;20512;-78
2024/03/07 01:55:41;;;;;;;21.50;12.30;;;6.30;99.90;;;6.87;100.00;98668.72;4986541;28;20562;-78
2024/03/07 01:58:14;;;;;;;26.50;12.80;;;6.20;99.90;;;6.84;100.00;98661.22;4991256;28;20468;-78
2024/03/07 02:00:43;;;;;;;26.33;13.10;;;6.10;99.90;;;6.79;100.00;98665.25;4984578;28;20882;-78
2024/03/07 02:03:13;;;;;;;25.40;12.93;;;6.00;99.90;;;6.73;100.00;98663.25;4988389;28;20459;-78
2024/03/07 02:05:42;;;;;;;21.33;12.27;;;6.00;99.90;;;6.69;100.00;98662.72;4983975;28;20466;-78
2024/03/07 02:08:14;;;;;;;19.93;11.83;;;5.90;99.90;;;6.63;100.00;98658.09;4986003;28;20468;-78
2024/03/07 02:10:43;;;;;;;20.87;11.27;;;5.90;99.90;;;6.71;100.00;98654.78;4983839;28;20499;-78
2024/03/07 02:13:12;;;;;;;23.57;11.07;;;5.90;99.90;;;6.69;100.00;98654.94;4984399;28;20460;-77
2024/03/07 02:15:42;;;;;;;29.50;12.17;;;5.90;99.90;;;6.64;100.00;98648.53;4983132;28;20870;-78
2024/03/07 02:18:11;;;;;;;25.30;12.87;;;5.90;99.90;;;6.66;100.00;98655.22;4983735;28;20530;-78
2024/03/07 02:20:44;;;;;;;22.10;11.80;;;5.90;99.90;;;6.60;100.00;98655.81;4982883;28;20472;-77
2024/03/07 02:23:14;;;;;;;24.53;12.60;;;5.80;99.90;;;6.52;100.00;98656.56;4984251;28;20200;-78
2024/03/07 02:25:43;;;;;;;20.30;11.70;;;5.70;99.90;;;6.50;100.00;98645.47;4982576;28;20466;-78
2024/03/07 02:28:11;;;;;;;18.87;10.70;;;5.60;99.90;;;6.41;100.00;98645.53;4985106;28;20993;-78
2024/03/07 02:30:39;;;;;;;20.70;10.73;;;5.50;99.90;;;6.32;100.00;98649.81;4983350;28;20546;-78
2024/03/07 02:33:09;;;;;;;21.50;10.87;;;5.40;99.90;;;6.17;100.00;98643.50;4984805;28;20570;-78
2024/03/07 02:35:38;;;;;;;24.30;12.10;;;5.30;99.90;;;6.06;100.00;98644.50;4983885;28;20465;-78
2024/03/07 02:38:08;;;;;;;28.52;12.60;;;5.20;99.90;;;6.18;100.00;98641.72;4984664;28;20523;-78
2024/03/07 02:40:36;;;;;;;20.13;12.07;;;5.30;99.90;;;6.16;100.00;98644.44;4986762;28;20216;-78
2024/03/07 02:43:05;;;;;;;26.33;12.57;;;5.30;99.90;;;6.10;100.00;98645.03;4989706;28;20550;-78
2024/03/07 02:45:33;;;;;;;21.70;11.47;;;5.20;99.90;;;6.12;100.00;98639.66;4987589;28;20478;-78
2024/03/07 02:48:02;;;;;;;19.92;11.80;;;5.30;99.90;;;6.01;100.00;98645.88;4990045;28;20464;-77
2024/03/07 02:50:31;;;;;;;24.97;13.30;;;5.10;99.90;;;5.98;100.00;98640.97;4986577;28;20254;-78
2024/03/07 02:52:59;;;;;;;29.33;12.23;;;5.10;99.90;;;5.94;100.00;98644.81;4989031;28;20659;-78
2024/03/07 02:55:29;;;;;;;29.10;12.40;;;5.10;99.90;;;6.01;100.00;98640.69;4990571;28;20200;-78
2024/03/07 02:57:58;;;;;;;24.58;12.52;;;5.20;99.90;;;5.94;100.00;98635.25;4990571;28;20836;-79
2024/03/07 03:00:29;;;;;;;22.37;13.13;;;5.10;99.90;;;6.00;100.00;98633.88;4987293;28;20216;-78
2024/03/07 03:02:58;;;;;;;24.25;13.05;;;5.20;99.90;;;6.07;100.00;98634.94;4990622;28;20477;-78
2024/03/07 03:05:27;;;;;;;25.30;14.10;;;5.30;99.90;;;6.13;100.00;98628.34;4987693;28;20209;-78
2024/03/07 03:07:55;;;;;;;24.80;13.47;;;5.30;99.90;;;5.99;100.00;98632.22;4985913;28;20466;-78
2024/03/07 03:10:28;;;;;;;23.70;12.20;;;5.10;99.90;;;5.94;100.00;98631.81;4988643;28;20552;-77
2024/03/07 03:13:00;;;;;;;25.53;12.27;;;5.20;99.90;;;5.92;100.00;98632.00;4988381;28;20469;-78
2024/03/07 03:15:31;;;;;;;26.97;13.53;;;5.20;99.90;;;5.92;100.00;98632.00;4988318;28;20492;-77
2024/03/07 03:18:00;;;;;;;24.90;12.27;;;5.20;99.90;;;5.91;100.00;98624.34;4988814;28;20889;-78
2024/03/07 03:20:34;;;;;;;23.53;13.03;;;5.10;99.90;;;5.87;100.00;98628.16;4988265;28;20463;-77
2024/03/07 03:23:05;;;;;;;21.37;12.03;;;5.10;99.90;;;5.83;100.00;98627.59;4988194;28;20473;-78
2024/03/07 03:25:49;;;;;;;21.80;12.77;;;5.00;99.90;;;5.78;100.00;98634.19;4989170;28;20967;-78
2024/03/07 03:28:20;;;;;;;27.87;13.53;;;4.90;99.90;;;5.72;100.00;98624.41;4989723;28;20470;-78
2024/03/07 03:30:51;;;;;;;22.80;12.77;;;4.90;99.90;;;5.73;100.00;98626.81;4988280;28;20496;-77
2024/03/07 03:33:20;;;;;;;18.23;11.30;;;4.90;99.90;;;5.68;100.00;98618.66;4993060;28;20462;-77
2024/03/07 03:35:49;;;;;;;25.10;13.23;;;4.80;99.90;;;5.66;100.00;98620.56;4990697;28;20471;-78
2024/03/07 03:38:19;;;;;;;25.70;13.40;;;4.80;99.90;;;5.61;100.00;98622.78;4995056;28;20558;-79
2024/03/07 03:40:49;;;;;;;26.23;13.73;;;4.80;99.90;;;5.57;100.00;98617.06;4991095;28;20561;-78
2024/03/07 03:43:19;;;;;;;23.00;12.00;;;4.80;99.90;;;5.51;100.00;98612.44;4993402;28;20482;-78
2024/03/07 03:45:47;;;;;;;21.80;12.00;;;4.70;99.90;;;5.46;100.00;98619.00;4992643;28;20982;-78
2024/03/07 03:48:16;;;;;;;26.90;13.20;;;4.60;99.90;;;5.37;100.00;98609.47;4991682;28;20914;-78
2024/03/07 03:50:46;;;;;;;20.92;12.23;;;4.50;99.90;;;5.18;100.00;98605.13;4991688;28;20470;-78
2024/03/07 03:53:15;;;;;;;22.20;12.75;;;4.30;99.90;;;5.09;100.00;98595.63;4990207;28;20458;-77
2024/03/07 03:55:43;;;;;;;22.77;13.10;;;4.20;99.90;;;5.04;100.00;98600.38;4992794;28;20293;-78
2024/03/07 03:58:11;;;;;;;23.20;11.50;;;4.20;99.90;;;5.08;100.00;98599.97;4989275;28;20467;-77
2024/03/07 04:00:41;;;;;;;29.83;13.77;;;4.20;99.90;;;5.02;100.00;98602.31;4986314;28;20520;-77
2024/03/07 04:03:10;;;;;;;23.20;11.43;;;4.20;99.90;;;5.01;100.00;98605.84;4987176;28;20466;-78
2024/03/07 04:05:38;;;;;;;19.70;12.60;;;4.20;99.90;;;4.98;100.00;98612.13;4988583;28;20464;-78
2024/03/07 04:08:07;;;;;;;27.15;13.82;;;4.10;99.90;;;4.94;100.00;98602.16;4983272;28;20456;-80
2024/03/07 04:10:35;;;;;;;25.17;14.40;;;4.10;99.90;;;4.91;100.00;98597.28;4984550;28;20711;-78
2024/03/07 04:13:04;;;;;;;21.23;11.87;;;4.10;99.90;;;4.89;100.00;98599.19;4984411;28;20602;-78
2024/03/07 04:15:32;;;;;;;22.40;13.68;;;4.00;99.90;;;4.90;100.00;98603.41;4983592;28;20474;-77
2024/03/07 04:18:07;;;;;;;21.37;12.60;;;4.10;99.90;;;4.87;100.00;98601.09;4985349;28;20230;-78
2024/03/07 04:20:35;;;;;;;25.67;14.32;;;4.10;99.90;;;4.85;100.00;98593.47;4983357;28;20560;-78
2024/03/07 04:23:05;;;;;;;22.42;13.18;;;4.10;99.90;;;4.82;100.00;98592.91;4985500;28;20602;-78
2024/03/07 04:25:36;;;;;;;23.77;14.20;;;4.00;99.90;;;4.76;100.00;98599.44;4983400;28;20217;-75
2024/03/07 04:28:05;;;;;;;23.43;11.97;;;4.00;99.90;;;4.72;100.00;98600.66;4979759;28;20216;-79
2024/03/07 04:30:34;;;;;;;23.97;12.17;;;3.90;99.90;;;4.66;100.00;98597.81;4977292;28;20521;-79
2024/03/07 04:33:02;;;;;;;25.87;13.63;;;3.80;99.90;;;4.62;100.00;98609.44;4979813;28;20495;-78
2024/03/07 04:35:32;;;;;;;21.40;11.83;;;3.80;99.90;;;4.60;100.00;98606.13;4985366;28;20996;-77
2024/03/07 04:38:00;;;;;;;23.50;12.53;;;3.80;99.90;;;4.52;100.00;98601.63;4987192;28;20651;-77
2024/03/07 04:40:29;;;;;;;24.67;13.23;;;3.70;99.90;;;4.49;100.00;98596.72;4986526;28;20474;-77
2024/03/07 04:42:57;;;;;;;26.40;14.50;;;3.70;99.90;;;4.42;100.00;98598.22;4987866;28;20993;-78
2024/03/07 04:45:26;;;;;;;21.53;13.17;;;3.60;99.90;;;4.44;100.00;98593.75;4986268;28;20513;-78
2024/03/07 04:47:54;;;;;;;24.80;13.60;;;3.60;99.90;;;4.40;100.00;98594.94;4987188;28;20505;-78
2024/03/07 04:50:22;;;;;;;32.07;13.63;;;3.60;99.90;;;4.29;100.00;98595.88;4987146;28;20474;-79
2024/03/07 04:52:53;;;;;;;29.37;14.33;;;3.50;99.90;;;4.28;100.00;98603.78;4982398;28;21022;-78
2024/03/07 04:55:21;;;;;;;22.13;12.53;;;3.50;99.90;;;4.21;100.00;98603.50;4985922;28;20475;-78
2024/03/07 04:57:50;;;;;;;30.17;14.80;;;3.50;99.90;;;4.16;100.00;98595.31;4984405;28;20471;-77
2024/03/07 05:00:19;;;;;;;23.30;13.13;;;3.40;99.90;;;4.12;100.00;98593.94;4986854;28;20462;-77
2024/03/07 05:02:50;;;;;;;21.77;12.55;;;3.30;99.90;;;4.13;100.00;98595.56;4986967;28;20463;-77
2024/03/07 05:05:21;;;;;;;23.83;12.93;;;3.30;99.90;;;4.11;100.00;98597.47;4985716;28;20254;-77
2024/03/07 05:07:55;;;;;;;27.53;13.10;;;3.30;99.90;;;4.10;100.00;98600.19;4986069;28;20543;-78
2024/03/07 05:10:24;;;;;;;20.00;11.37;;;3.30;99.90;;;4.10;100.00;98606.19;4985991;28;20460;-78
2024/03/07 05:12:52;;;;;;;23.83;12.30;;;3.30;99.90;;;4.07;100.00;98602.09;4989496;28;20877;-77
2024/03/07 05:15:21;;;;;;;24.45;13.00;;;3.30;99.90;;;4.18;100.00;98602.94;4989619;28;20675;-77
2024/03/07 05:17:49;;;;;;;25.33;12.48;;;3.30;99.90;;;4.14;100.00;98601.56;4989844;28;21036;-78
2024/03/07 05:20:18;;;;;;;26.43;13.43;;;3.30;99.90;;;4.09;100.00;98604.56;4990192;28;20298;-78
2024/03/07 05:22:50;;;;;;;26.30;13.13;;;3.20;99.90;;;4.06;100.00;98602.25;4990127;28;21283;-78
2024/03/07 05:25:21;;;;;;;26.10;13.50;;;3.20;99.90;;;4.02;100.00;98598.28;4988084;28;21107;-77
2024/03/07 05:27:51;;;;;;;28.77;13.70;;;3.20;99.90;;;4.00;100.00;98597.59;4983796;28;21381;-77
2024/03/07 05:30:23;;;;;;;27.93;14.07;;;3.20;99.90;;;3.92;100.00;98592.28;4979679;28;20507;-76
2024/03/07 05:32:51;;;;;;;22.43;12.07;;;3.10;99.90;;;3.84;100.00;98597.28;4982136;28;20571;-76
2024/03/07 05:35:20;;;;;;;25.30;12.87;;;3.00;99.90;;;3.80;100.00;98594.13;4982339;28;20476;-77
2024/03/07 05:37:50;;;;;;;24.23;12.57;;;3.00;99.90;;;3.90;100.00;98599.31;4981687;28;20498;-77
2024/03/07 05:40:21;;;;;;;23.98;12.77;;;3.10;99.90;;;3.80;100.00;98598.47;4982779;28;20475;-76
2024/03/07 05:42:50;;;;;;;23.47;11.80;;;3.00;99.90;;;3.78;100.00;98590.03;4982672;28;20228;-76
2024/03/07 05:45:18;;;;;;;24.30;12.77;;;3.00;99.90;;;3.75;100.00;98590.31;4979959;28;20473;-77
2024/03/07 05:47:48;;;;;;;27.80;12.90;;;2.90;99.90;;;3.63;100.00;98588.75;4987653;28;20493;-77
2024/03/07 05:50:18;;;;;;;23.00;12.40;;;2.80;99.90;;;3.57;100.00;98586.69;4988285;28;20471;-76
2024/03/07 05:52:48;;;;;;;28.03;13.10;;;2.80;99.90;;;3.51;100.00;98591.41;4986540;28;20519;-77
2024/03/07 05:55:18;;;;;;;22.47;12.90;;;2.70;99.90;;;3.41;100.00;98587.97;4986082;28;20464;-77
2024/03/07 05:57:49;;;;;;;24.43;11.90;;;2.60;99.90;;;3.36;100.00;98587.56;4987887;28;20547;-76
2024/03/07 06:00:26;;;;;;;24.43;12.87;;;2.50;99.90;;;3.33;100.00;98600.69;4986598;28;20456;-76
2024/03/07 06:02:57;;;;;;;21.57;13.30;;;2.50;99.90;;;3.32;100.00;98593.91;4990140;28;20467;-76
2024/03/07 06:05:26;;;;;;;25.10;12.67;;;2.50;99.90;;;3.35;100.00;98592.84;4990806;28;20470;-77
2024/03/07 06:07:56;;;;;;;25.77;13.75;;;2.50;99.90;;;3.36;100.00;98595.31;4989220;28;20987;-76
2024/03/07 06:10:25;;;;;;;29.90;13.73;;;2.60;99.90;;;3.36;100.00;98599.66;4991057;28;20208;-76
2024/03/07 06:12:55;;;;;;;29.27;13.93;;;2.50;99.90;;;3.35;100.00;98596.25;4990045;28;20484;-77
2024/03/07 06:15:39;;;;;;;23.50;12.67;;;2.60;99.90;;;3.46;100.00;98600.53;4990816;28;20235;-76
2024/03/07 06:18:10;;;;;;;28.63;15.10;;;2.70;99.90;;;3.34;100.00;98599.78;4990005;28;20464;-76
2024/03/07 06:20:40;;;;;;;24.90;13.27;;;2.50;99.90;;;3.34;100.00;98601.53;4990540;28;20250;-76
2024/03/07 06:23:11;;;;;;;22.13;12.77;;;2.50;99.90;;;3.29;100.00;98603.69;4990251;28;20523;-76
2024/03/07 06:25:47;;;;;;;32.37;13.80;;;2.50;99.90;;;3.24;100.00;98601.47;4987497;28;20468;-77
2024/03/07 06:28:18;;;;;;;27.53;12.53;;;2.40;99.90;;;3.20;100.00;98594.09;4987501;28;20515;-76
2024/03/07 06:30:48;;;;;;;26.63;12.37;;;2.40;99.90;;;3.13;100.00;98603.31;4986371;28;20476;-77
2024/03/07 06:33:17;;;;;;;24.55;13.00;;;2.30;99.90;;;3.18;100.00;98601.19;4985799;28;20491;-76
2024/03/07 06:35:51;;;;;;;30.30;13.57;;;2.40;99.90;;;3.15;100.00;98599.66;4986309;28;20204;-76
2024/03/07 06:38:21;;;;;;;25.13;13.53;;;2.30;99.90;;;3.12;100.00;98604.28;4986704;28;20463;-77
2024/03/07 06:40:49;;;;;;;26.23;13.00;;;2.30;99.90;;;3.14;100.00;98599.78;4987758;28;20546;-77
2024/03/07 06:43:19;;;;;;;25.50;13.60;;;2.30;99.90;;;3.13;100.00;98601.53;4986469;28;20470;-77
2024/03/07 06:45:49;;;;;;;28.70;13.37;;;2.30;99.90;;;3.14;100.00;98600.59;4986234;28;20456;-77
2024/03/07 06:48:18;;;;;;;24.77;14.00;;;2.30;99.90;;;3.19;100.00;98605.41;4986605;28;20474;-77
2024/03/07 06:50:47;;;;;;;24.50;13.25;;;2.40;99.90;;;3.19;100.00;98593.31;4985628;28;20557;-76
2024/03/07 06:53:16;;;;;;;30.97;14.40;;;2.50;99.90;;;3.24;100.00;98591.16;4985721;28;20239;-76
2024/03/07 06:55:45;;;;;;;26.47;14.30;;;2.50;99.90;;;3.27;100.00;98598.63;4985901;28;20460;-76
2024/03/07 06:58:13;;;;;;;27.55;13.27;;;2.50;99.90;;;3.28;100.00;98592.53;4985613;28;20467;-77
2024/03/07 07:00:44;;;;;;;30.57;13.23;;;2.50;99.90;;;3.27;100.00;98598.63;4987656;28;20231;-77
2024/03/07 07:03:14;;;;;;;28.00;15.70;;;2.60;99.90;;;3.26;100.00;98594.44;4988070;28;20462;-76
2024/03/07 07:05:42;;;;;;;22.47;13.20;;;2.40;99.90;;;3.25;100.00;98591.97;4991263;28;20456;-76
2024/03/07 07:08:13;;;;;;;29.10;15.30;;;2.40;99.90;;;3.26;100.00;98588.44;4992594;28;20468;-78
2024/03/07 07:10:42;;;;;;;27.97;13.53;;;2.40;99.90;;;3.30;100.00;98590.63;4993478;28;20460;-77
2024/03/07 07:13:11;;;;;;;25.23;13.30;;;2.50;99.90;;;3.39;100.00;98586.47;4992218;28;20507;-77
2024/03/07 07:15:40;;;;;;;28.37;13.17;;;2.50;99.90;;;3.51;100.00;98583.66;4993436;28;20247;-77
2024/03/07 07:18:13;;;;;;;33.53;13.73;;;2.70;99.90;;;3.55;100.00;98587.63;4991426;28;21075;-76
2024/03/07 07:20:42;;;;;;;30.93;13.90;;;2.80;99.90;;;3.62;100.00;98587.09;4991242;28;20491;-76
2024/03/07 07:23:10;;;;;;;33.38;14.38;;;2.80;99.90;;;3.73;100.00;98576.66;4992190;28;20474;-75
2024/03/07 07:25:39;;;;;;;30.23;15.33;;;3.00;99.90;;;3.80;100.00;98578.59;4992788;28;20258;-76
2024/03/07 07:28:07;;;;;;;35.77;12.60;;;3.00;99.90;;;3.86;100.00;98577.25;4993975;28;20465;-76
2024/03/07 07:30:36;;;;;;;25.93;13.80;;;3.10;99.90;;;3.97;100.00;98582.31;4993602;28;20463;-76
2024/03/07 07:33:05;;;;;;;33.67;15.57;;;3.20;99.90;;;4.04;100.00;98575.69;4992188;28;20503;-76
2024/03/07 07:35:35;;;;;;;29.60;16.10;;;3.30;99.90;;;4.15;100.00;98578.16;4989587;28;21022;-77
2024/03/07 07:38:06;;;;;;;24.83;12.97;;;3.40;99.90;;;4.24;100.00;98573.94;4990587;28;20463;-77
2024/03/07 07:40:35;;;;;;;25.17;13.50;;;3.50;99.90;;;4.31;100.00;98577.63;4987807;28;20469;-77
2024/03/07 07:43:04;;;;;;;24.90;14.50;;;3.60;99.90;;;4.31;100.00;98573.25;4989685;28;20460;-77
2024/03/07 07:45:35;;;;;;;36.60;13.60;;;3.70;99.90;;;4.35;100.00;98574.63;4988321;28;20702;-76
2024/03/07 07:48:05;;;;;;;31.88;13.45;;;3.80;99.90;;;4.38;100.00;98579.53;4989140;28;20547;-76
2024/03/07 07:50:35;;;;;;;25.07;13.80;;;3.80;99.90;;;4.46;100.00;98577.09;4989584;28;20319;-76
2024/03/07 07:53:07;;;;;;;20.97;13.10;;;3.90;99.90;;;4.49;100.00;98581.19;4989416;28;20491;-76
2024/03/07 07:55:36;;;;;;;23.90;12.77;;;3.90;99.90;;;4.55;100.00;98576.28;4989205;28;20536;-77
2024/03/07 07:58:05;;;;;;;26.00;13.70;;;4.00;99.90;;;4.58;100.00;98570.03;4989693;28;20458;-76
2024/03/07 08:00:34;;;;;;;25.97;12.93;;;4.10;99.90;;;4.64;100.00;98568.66;4987135;28;20971;-76
2024/03/07 08:03:05;;;;;;;23.80;12.90;;;4.10;99.90;;;4.69;100.00;98567.28;4988380;28;20548;-76
2024/03/07 08:05:37;;;;;;;24.52;13.10;;;4.20;99.90;;;4.73;100.00;98578.19;4988945;28;20512;-76
2024/03/07 08:08:11;;;;;;;28.10;12.70;;;4.20;99.90;;;4.80;100.00;98576.69;4990202;28;20288;-76
2024/03/07 08:10:41;;;;;;;19.93;10.60;;;4.20;99.90;;;4.88;100.00;98576.81;4991911;28;20476;-77
2024/03/07 08:13:13;;;;;;;29.53;13.77;;;4.30;99.90;;;4.92;100.00;98575.59;4993638;28;20492;-76
2024/03/07 08:15:43;;;;;;;21.80;13.17;;;4.30;99.90;;;4.92;100.00;98571.22;4990780;28;20560;-77
2024/03/07 08:18:11;;;;;;;22.23;11.90;;;4.40;99.90;;;4.94;100.00;98565.91;4991181;28;20460;-77
2024/03/07 08:20:43;;;;;;;21.70;12.13;;;4.40;99.90;;;5.04;100.00;98574.47;4993703;28;20485;-76
2024/03/07 08:23:12;;;;;;;22.20;11.47;;;4.40;99.90;;;5.12;100.00;98573.78;4992839;28;21183;-76
2024/03/07 08:25:41;;;;;;;21.47;13.50;;;4.50;99.90;;;5.16;100.00;98572.53;4992335;28;20470;-76
2024/03/07 08:28:10;;;;;;;20.57;11.33;;;4.50;99.90;;;5.17;100.00;98562.06;4992126;28;21126;-76
2024/03/07 08:30:38;;;;;;;19.15;11.38;;;4.60;99.90;;;5.23;100.00;98576.22;4992043;28;20472;-77
2024/03/07 08:33:07;;;;;;;22.97;12.13;;;4.60;99.90;;;5.27;100.00;98568.03;4993511;28;20216;-76
2024/03/07 08:35:36;;;;;;;19.83;11.55;;;4.70;99.90;;;5.31;100.00;98571.16;4993951;28;20604;-77
2024/03/07 08:38:08;;;;;;;20.20;11.57;;;4.80;99.90;;;5.40;100.00;98567.72;4992816;28;20208;-77
2024/03/07 08:40:37;;;;;;;19.87;11.53;;;4.90;99.90;;;5.45;100.00;98581.88;4991204;28;20768;-77
2024/03/07 08:43:07;;;;;;;22.37;11.20;;;4.90;99.90;;;5.47;100.00;98573.97;4991227;28;20886;-76
2024/03/07 08:45:36;;;;;;;23.80;11.80;;;5.00;99.90;;;5.54;100.00;98575.03;4993389;28;20466;-77
2024/03/07 08:48:07;;;;;;;18.33;11.13;;;5.00;99.90;;;5.58;100.00;98566.00;4992406;28;20234;-76
2024/03/07 08:50:37;;;;;;;18.50;10.90;;;5.00;99.90;;;5.64;100.00;98564.59;4991982;28;20472;-77
2024/03/07 08:53:08;;;;;;;19.80;11.43;;;5.10;99.90;;;5.61;100.00;98563.13;4993267;28;20562;-77
2024/03/07 08:55:37;;;;;;;16.30;9.60;;;5.00;99.90;;;5.65;100.00;98563.66;4993134;28;20499;-77
2024/03/07 08:58:07;;;;;;;21.38;12.15;;;5.10;99.90;;;5.70;100.00;98564.03;4989368;28;20463;-76
2024/03/07 09:00:37;;;;;;;20.60;10.50;;;5.20;99.90;;;5.74;100.00;98561.00;4986223;28;20201;-77
2024/03/07 09:03:10;;;;;;;19.37;10.77;;;5.20;99.90;;;5.66;100.00;98563.50;4987176;28;20522;-77
2024/03/07 09:05:41;;;;;;;16.37;10.47;;;5.20;99.90;;;5.70;100.00;98561.44;4987566;28;21069;-77
2024/03/07 09:08:12;;;;;;;19.83;11.47;;;5.20;99.90;;;5.73;100.00;98551.59;4987354;28;20934;-76
2024/03/07 09:10:42;;;;;;;18.33;10.80;;;5.30;99.90;;;5.81;100.00;98548.28;4988000;28;20812;-77
2024/03/07 09:13:11;;;;;;;19.08;10.00;;;5.30;99.90;;;5.86;100.00;98549.53;4985868;28;20865;-77
2024/03/07 09:15:40;;;;;;;19.55;11.10;;;5.40;99.90;;;5.95;100.00;98553.00;4986802;28;20246;-77
2024/03/07 09:18:08;;;;;;;17.20;10.30;;;5.40;99.90;;;5.99;100.00;98546.56;4986230;28;20220;-76
2024/03/07 09:20:38;;;;;;;16.10;10.07;;;5.50;99.90;;;6.01;100.00;98542.03;4987058;28;20203;-76
2024/03/07 09:23:07;;;;;;;18.80;11.00;;;5.50;99.90;;;6.07;100.00;98541.47;4987931;28;20470;-77
2024/03/07 09:25:36;;;;;;;18.50;10.20;;;5.50;99.90;;;6.08;100.00;98543.09;4987400;28;20302;-77
2024/03/07 09:28:06;;;;;;;22.63;12.47;;;5.60;99.90;;;6.12;100.00;98544.44;4986726;28;21082;-77
2024/03/07 09:30:38;;;;;;;25.57;11.10;;;5.60;99.90;;;6.21;100.00;98540.16;4985637;28;20456;-76
2024/03/07 09:33:10;;;;;;;20.07;10.33;;;5.60;99.90;;;6.26;100.00;98540.53;4988286;28;20503;-77
2024/03/07 09:35:39;;;;;;;18.85;9.00;;;5.60;99.90;;;6.23;100.00;98541.63;4989152;28;20492;-77
2024/03/07 09:38:08;;;;;;;19.50;10.53;;;5.70;99.90;;;6.18;100.00;98540.47;4988564;28;20209;-77
2024/03/07 09:40:38;;;;;;;17.40;10.93;;;5.70;99.90;;;6.19;100.00;98532.50;4989231;28;20467;-77
2024/03/07 09:43:10;;;;;;;20.30;11.90;;;5.60;99.90;;;6.15;100.00;98538.94;4987755;28;20465;-77
2024/03/07 09:45:42;;;;;;;18.70;10.80;;;5.70;99.90;;;6.20;100.00;98535.94;4987068;28;20462;-77
2024/03/07 09:48:15;;;;;;;17.53;10.53;;;5.70;99.90;;;6.20;100.00;98546.31;4987327;28;21565;-76
2024/03/07 09:50:47;;;;;;;16.13;10.60;;;5.70;99.90;;;6.13;100.00;98535.69;4988373;28;20510;-77
2024/03/07 09:53:20;;;;;;;15.33;9.93;;;5.60;99.90;;;6.14;100.00;98537.34;4986398;28;20508;-77
2024/03/07 09:55:50;;;;;;;20.90;10.70;;;5.50;99.90;;;6.18;100.00;98537.88;4986738;28;20860;-77
2024/03/07 09:58:21;;;;;;;18.67;9.93;;;5.60;99.90;;;6.08;100.00;98543.09;4986495;28;20463;-77
2024/03/07 10:00:51;;;;;;;19.30;10.40;;;5.60;99.90;;;6.07;100.00;98549.28;4986929;28;20466;-76
2024/03/07 10:03:28;;;;;;;18.17;10.07;;;5.50;99.90;;;6.06;100.00;98545.03;4985204;28;20486;-77
2024/03/07 10:05:57;;;;;;;20.98;10.45;;;5.50;99.90;;;6.09;100.00;98534.34;4985689;28;20461;-77
2024/03/07 10:08:27;;;;;;;17.97;10.27;;;5.60;99.90;;;6.13;100.00;98530.50;4986121;28;20294;-77
2024/03/07 10:10:58;;;;;;;18.63;10.77;;;5.60;99.90;;;6.19;100.00;98532.50;4985456;28;20821;-77
2024/03/07 10:13:27;;;;;;;13.50;8.13;;;5.70;99.90;;;6.18;100.00;98537.88;4987363;28;20789;-77
2024/03/07 10:16:00;;;;;;;19.07;10.80;;;5.60;99.90;;;6.17;100.00;98537.03;4986762;28;20531;-76
2024/03/07 10:18:29;;;;;;;14.87;9.00;;;5.60;99.90;;;6.15;100.00;98528.56;4986294;28;20847;-77
2024/03/07 10:20:58;;;;;;;16.07;9.47;;;5.60;99.90;;;6.23;100.00;98533.84;4992214;28;20548;-77
2024/03/07 10:23:27;;;;;;;11.93;7.30;;;5.70;99.90;;;6.15;100.00;98533.75;4991526;28;20518;-77